sensor_id;sensor_type;location;lat;lon;timestamp;temperature;humidity
2453;DHT22;63678;47.994;7.854;2023-02-13T00:00:04;2.40;99.90
2453;DHT22;63678;47.994;7.854;2023-02-13T00:02:38;2.30;99.90
2453;DHT22;63678;47.994;7.854;2023-02-13T00:05:11;2.60;99.90
2453;DHT22;63678;47.994;7.854;2023-02-13T00:07:43;2.80;99.90
2453;DHT22;63678;47.994;7.854;2023-02-13T00:10:15;2.60;99.90
2453;DHT22;63678;47.994;7.854;2023-02-13T00:12:47;2.70;99.90
2453;DHT22;63678;47.994;7.854;2023-02-13T00:15:19;2.70;99.90
2453;DHT22;63678;47.994;7.854;2023-02-13T00:17:52;2.50;99.90
2453;DHT22;63678;47.994;7.854;2023-02-13T00:20:24;2.40;99.90
2453;DHT22;63678;47.994;7.854;2023-02-13T00:23:00;2.40;99.90
2453;DHT22;63678;47.994;7.854;2023-02-13T00:25:32;2.50;99.90
2453;DHT22;63678;47.994;7.854;2023-02-13T00:28:04;2.60;99.90
2453;DHT22;63678;47.994;7.854;2023-02-13T00:30:36;2.60;99.90
2453;DHT22;63678;47.994;7.854;2023-02-13T00:33:08;2.70;99.90
2453;DHT22;63678;47.994;7.854;2023-02-13T00:35:41;2.50;99.90
2453;DHT22;63678;47.994;7.854;2023-02-13T00:40:45;2.50;99.90
2453;DHT22;63678;47.994;7.854;2023-02-13T00:43:17;2.40;99.90
2453;DHT22;63678;47.994;7.854;2023-02-13T00:45:51;2.40;99.90
2453;DHT22;63678;47.994;7.854;2023-02-13T00:48:24;2.40;99.90
2453;DHT22;63678;47.994;7.854;2023-02-13T00:50:58;2.20;99.90
2453;DHT22;63678;47.994;7.854;2023-02-13T00:53:34;2.20;99.90
2453;DHT22;63678;47.994;7.854;2023-02-13T00:56:07;2.10;99.90
2453;DHT22;63678;47.994;7.854;2023-02-13T00:58:40;2.10;99.90
2453;DHT22;63678;47.994;7.854;2023-02-13T01:01:12;2.10;99.90
2453;DHT22;63678;47.994;7.854;2023-02-13T01:03:45;2.10;99.90
2453;DHT22;63678;47.994;7.854;2023-02-13T01:06:17;2.00;99.90
2453;DHT22;63678;47.994;7.854;2023-02-13T01:08:49;2.00;99.90
2453;DHT22;63678;47.994;7.854;2023-02-13T01:11:21;2.00;99.90
2453;DHT22;63678;47.994;7.854;2023-02-13T01:13:53;2.00;99.90
2453;DHT22;63678;47.994;7.854;2023-02-13T01:16:25;2.10;99.90
2453;DHT22;63678;47.994;7.854;2023-02-13T01:18:59;2.10;99.90
2453;DHT22;63678;47.994;7.854;2023-02-13T01:21:35;2.10;99.90
2453;DHT22;63678;47.994;7.854;2023-02-13T01:24:07;2.00;99.90
2453;DHT22;63678;47.994;7.854;2023-02-13T01:26:40;2.00;99.90
2453;DHT22;63678;47.994;7.854;2023-02-13T01:29:13;1.90;99.90
2453;DHT22;63678;47.994;7.854;2023-02-13T01:31:45;2.00;99.90
2453;DHT22;63678;47.994;7.854;2023-02-13T01:34:17;2.00;99.90
2453;DHT22;63678;47.994;7.854;2023-02-13T01:36:49;2.00;99.90
2453;DHT22;63678;47.994;7.854;2023-02-13T01:39:21;2.10;99.90
2453;DHT22;63678;47.994;7.854;2023-02-13T01:41:54;2.10;99.90
2453;DHT22;63678;47.994;7.854;2023-02-13T01:44:52;1.90;99.90
2453;DHT22;63678;47.994;7.854;2023-02-13T01:47:46;1.90;99.90
2453;DHT22;63678;47.994;7.854;2023-02-13T01:50:39;1.80;99.90
2453;DHT22;63678;47.994;7.854;2023-02-13T01:56:08;1.50;99.90
2453;DHT22;63678;47.994;7.854;2023-02-13T01:58:45;1.30;99.90
2453;DHT22;63678;47.994;7.854;2023-02-13T02:01:19;1.40;99.90
2453;DHT22;63678;47.994;7.854;2023-02-13T02:04:09;1.40;99.90
2453;DHT22;63678;47.994;7.854;2023-02-13T02:06:49;1.30;99.90
2453;DHT22;63678;47.994;7.854;2023-02-13T02:09:37;1.30;99.90
2453;DHT22;63678;47.994;7.854;2023-02-13T02:12:21;1.30;99.90
2453;DHT22;63678;47.994;7.854;2023-02-13T02:14:58;1.40;99.90
2453;DHT22;63678;47.994;7.854;2023-02-13T02:17:35;1.50;99.90
2453;DHT22;63678;47.994;7.854;2023-02-13T02:26:59;1.50;99.90
2453;DHT22;63678;47.994;7.854;2023-02-13T02:42:19;1.70;99.90
2453;DHT22;63678;47.994;7.854;2023-02-13T02:47:58;1.80;99.90
2453;DHT22;63678;47.994;7.854;2023-02-13T02:54:16;1.90;99.90
2453;DHT22;63678;47.994;7.854;2023-02-13T02:57:20;2.00;99.90
2453;DHT22;63678;47.994;7.854;2023-02-13T03:00:01;2.10;99.90
2453;DHT22;63678;47.994;7.854;2023-02-13T03:02:52;2.10;99.90
2453;DHT22;63678;47.994;7.854;2023-02-13T03:05:45;2.20;99.90
2453;DHT22;63678;47.994;7.854;2023-02-13T03:08:45;2.10;99.90
2453;DHT22;63678;47.994;7.854;2023-02-13T03:11:42;1.90;99.90
2453;DHT22;63678;47.994;7.854;2023-02-13T03:14:36;1.90;99.90
2453;DHT22;63678;47.994;7.854;2023-02-13T03:17:14;1.60;99.90
2453;DHT22;63678;47.994;7.854;2023-02-13T03:26:33;1.30;99.90
2453;DHT22;63678;47.994;7.854;2023-02-13T03:29:38;1.40;99.90
2453;DHT22;63678;47.994;7.854;2023-02-13T03:32:39;1.30;99.90
2453;DHT22;63678;47.994;7.854;2023-02-13T03:35:36;1.30;99.90
2453;DHT22;63678;47.994;7.854;2023-02-13T03:39:39;1.60;99.90
2453;DHT22;63678;47.994;7.854;2023-02-13T03:42:19;1.70;99.90
2453;DHT22;63678;47.994;7.854;2023-02-13T03:45:01;1.80;99.90
2453;DHT22;63678;47.994;7.854;2023-02-13T03:47:56;1.90;99.90
2453;DHT22;63678;47.994;7.854;2023-02-13T03:50:30;2.00;99.90
2453;DHT22;63678;47.994;7.854;2023-02-13T03:53:05;1.90;99.90
2453;DHT22;63678;47.994;7.854;2023-02-13T03:55:45;1.70;99.90
2453;DHT22;63678;47.994;7.854;2023-02-13T03:58:41;1.70;99.90
2453;DHT22;63678;47.994;7.854;2023-02-13T04:01:35;1.60;99.90
2453;DHT22;63678;47.994;7.854;2023-02-13T04:04:12;1.60;99.90
2453;DHT22;63678;47.994;7.854;2023-02-13T04:06:59;1.50;99.90
2453;DHT22;63678;47.994;7.854;2023-02-13T04:10:09;1.60;99.90
2453;DHT22;63678;47.994;7.854;2023-02-13T04:13:13;1.40;99.90
2453;DHT22;63678;47.994;7.854;2023-02-13T04:16:06;1.40;99.90
2453;DHT22;63678;47.994;7.854;2023-02-13T04:18:42;1.20;99.90
2453;DHT22;63678;47.994;7.854;2023-02-13T04:21:15;1.20;99.90
2453;DHT22;63678;47.994;7.854;2023-02-13T04:23:47;1.20;99.90
2453;DHT22;63678;47.994;7.854;2023-02-13T04:26:21;1.20;99.90
2453;DHT22;63678;47.994;7.854;2023-02-13T04:28:54;1.30;99.90
2453;DHT22;63678;47.994;7.854;2023-02-13T04:31:30;1.30;99.90
2453;DHT22;63678;47.994;7.854;2023-02-13T04:34:02;1.30;99.90
2453;DHT22;63678;47.994;7.854;2023-02-13T04:36:35;1.30;99.90
2453;DHT22;63678;47.994;7.854;2023-02-13T04:39:28;1.40;99.90
2453;DHT22;63678;47.994;7.854;2023-02-13T04:42:00;1.40;99.90
2453;DHT22;63678;47.994;7.854;2023-02-13T04:44:54;1.50;99.90
2453;DHT22;63678;47.994;7.854;2023-02-13T04:47:50;1.30;99.90
2453;DHT22;63678;47.994;7.854;2023-02-13T04:53:18;1.10;99.90
2453;DHT22;63678;47.994;7.854;2023-02-13T04:55:51;1.10;99.90
2453;DHT22;63678;47.994;7.854;2023-02-13T04:58:24;1.10;99.90
2453;DHT22;63678;47.994;7.854;2023-02-13T05:00:57;1.10;99.90
2453;DHT22;63678;47.994;7.854;2023-02-13T05:06:02;1.30;99.90
2453;DHT22;63678;47.994;7.854;2023-02-13T05:08:35;1.10;99.90
2453;DHT22;63678;47.994;7.854;2023-02-13T05:11:07;1.10;99.90
2453;DHT22;63678;47.994;7.854;2023-02-13T05:13:40;1.20;99.90
2453;DHT22;63678;47.994;7.854;2023-02-13T05:18:45;1.10;99.90
2453;DHT22;63678;47.994;7.854;2023-02-13T05:21:18;1.10;99.90
2453;DHT22;63678;47.994;7.854;2023-02-13T05:24:08;1.10;99.90
2453;DHT22;63678;47.994;7.854;2023-02-13T05:26:41;1.00;99.90
2453;DHT22;63678;47.994;7.854;2023-02-13T05:29:14;0.90;99.90
2453;DHT22;63678;47.994;7.854;2023-02-13T05:31:56;0.80;99.90
2453;DHT22;63678;47.994;7.854;2023-02-13T05:34:29;0.70;99.90
2453;DHT22;63678;47.994;7.854;2023-02-13T05:37:01;0.80;99.90
2453;DHT22;63678;47.994;7.854;2023-02-13T05:39:34;0.80;99.90
2453;DHT22;63678;47.994;7.854;2023-02-13T05:42:06;0.90;99.90
2453;DHT22;63678;47.994;7.854;2023-02-13T05:47:11;0.90;99.90
2453;DHT22;63678;47.994;7.854;2023-02-13T05:49:44;1.00;99.90
2453;DHT22;63678;47.994;7.854;2023-02-13T05:52:16;0.90;99.90
2453;DHT22;63678;47.994;7.854;2023-02-13T05:54:48;0.90;99.90
2453;DHT22;63678;47.994;7.854;2023-02-13T05:57:20;0.90;99.90
2453;DHT22;63678;47.994;7.854;2023-02-13T06:02:26;1.00;99.90
2453;DHT22;63678;47.994;7.854;2023-02-13T06:04:58;1.00;99.90
2453;DHT22;63678;47.994;7.854;2023-02-13T06:07:31;1.10;99.90
2453;DHT22;63678;47.994;7.854;2023-02-13T06:10:03;1.00;99.90
2453;DHT22;63678;47.994;7.854;2023-02-13T06:12:36;0.90;99.90
2453;DHT22;63678;47.994;7.854;2023-02-13T06:15:08;0.90;99.90
2453;DHT22;63678;47.994;7.854;2023-02-13T06:17:41;0.90;99.90
2453;DHT22;63678;47.994;7.854;2023-02-13T06:20:16;0.80;99.90
2453;DHT22;63678;47.994;7.854;2023-02-13T06:22:51;0.80;99.90
2453;DHT22;63678;47.994;7.854;2023-02-13T06:25:45;1.00;99.90
2453;DHT22;63678;47.994;7.854;2023-02-13T06:28:18;0.90;99.90
2453;DHT22;63678;47.994;7.854;2023-02-13T06:30:50;0.90;99.90
2453;DHT22;63678;47.994;7.854;2023-02-13T06:33:44;1.00;99.90
2453;DHT22;63678;47.994;7.854;2023-02-13T06:36:16;1.40;99.90
2453;DHT22;63678;47.994;7.854;2023-02-13T06:38:49;1.40;99.90
2453;DHT22;63678;47.994;7.854;2023-02-13T06:41:21;1.40;99.90
2453;DHT22;63678;47.994;7.854;2023-02-13T06:43:54;1.30;99.90
2453;DHT22;63678;47.994;7.854;2023-02-13T06:48:59;1.20;99.90
2453;DHT22;63678;47.994;7.854;2023-02-13T06:51:32;1.20;99.90
2453;DHT22;63678;47.994;7.854;2023-02-13T06:54:04;1.20;99.90
2453;DHT22;63678;47.994;7.854;2023-02-13T06:56:58;1.10;99.90
2453;DHT22;63678;47.994;7.854;2023-02-13T06:59:31;1.00;99.90
2453;DHT22;63678;47.994;7.854;2023-02-13T07:02:04;1.00;99.90
2453;DHT22;63678;47.994;7.854;2023-02-13T07:04:36;0.90;99.90
2453;DHT22;63678;47.994;7.854;2023-02-13T07:07:09;0.80;99.90
2453;DHT22;63678;47.994;7.854;2023-02-13T07:09:45;1.00;99.90
2453;DHT22;63678;47.994;7.854;2023-02-13T07:12:17;1.10;99.90
2453;DHT22;63678;47.994;7.854;2023-02-13T07:15:09;1.10;99.90
2453;DHT22;63678;47.994;7.854;2023-02-13T07:18:04;1.10;99.90
2453;DHT22;63678;47.994;7.854;2023-02-13T07:20:37;1.10;99.90
2453;DHT22;63678;47.994;7.854;2023-02-13T07:23:09;1.10;99.90
2453;DHT22;63678;47.994;7.854;2023-02-13T07:25:42;1.20;99.90
2453;DHT22;63678;47.994;7.854;2023-02-13T07:28:14;1.20;99.90
2453;DHT22;63678;47.994;7.854;2023-02-13T07:30:47;1.40;99.90
2453;DHT22;63678;47.994;7.854;2023-02-13T07:33:20;1.60;99.90
2453;DHT22;63678;47.994;7.854;2023-02-13T07:36:11;1.70;99.90
2453;DHT22;63678;47.994;7.854;2023-02-13T07:38:45;1.80;99.90
2453;DHT22;63678;47.994;7.854;2023-02-13T07:41:18;2.00;99.90
2453;DHT22;63678;47.994;7.854;2023-02-13T07:43:51;2.10;99.90
2453;DHT22;63678;47.994;7.854;2023-02-13T07:46:24;2.30;99.90
2453;DHT22;63678;47.994;7.854;2023-02-13T07:48:56;2.40;99.90
2453;DHT22;63678;47.994;7.854;2023-02-13T07:51:28;2.50;99.90
2453;DHT22;63678;47.994;7.854;2023-02-13T07:54:01;2.70;99.90
2453;DHT22;63678;47.994;7.854;2023-02-13T07:56:34;7.30;99.90
2453;DHT22;63678;47.994;7.854;2023-02-13T07:59:06;4.70;99.90
2453;DHT22;63678;47.994;7.854;2023-02-13T08:01:40;4.10;99.90
2453;DHT22;63678;47.994;7.854;2023-02-13T08:04:12;3.90;99.90
2453;DHT22;63678;47.994;7.854;2023-02-13T08:06:45;3.60;99.90
2453;DHT22;63678;47.994;7.854;2023-02-13T08:09:19;3.50;99.90
2453;DHT22;63678;47.994;7.854;2023-02-13T08:12:11;3.70;99.90
2453;DHT22;63678;47.994;7.854;2023-02-13T08:14:44;4.00;99.90
2453;DHT22;63678;47.994;7.854;2023-02-13T08:17:18;4.00;99.90
2453;DHT22;63678;47.994;7.854;2023-02-13T08:19:50;4.20;99.90
2453;DHT22;63678;47.994;7.854;2023-02-13T08:22:24;4.40;99.90
2453;DHT22;63678;47.994;7.854;2023-02-13T08:24:58;4.60;99.90
2453;DHT22;63678;47.994;7.854;2023-02-13T08:27:53;4.70;99.90
2453;DHT22;63678;47.994;7.854;2023-02-13T08:30:26;4.80;99.90
2453;DHT22;63678;47.994;7.854;2023-02-13T08:32:59;4.60;99.90
2453;DHT22;63678;47.994;7.854;2023-02-13T08:35:32;4.60;99.90
2453;DHT22;63678;47.994;7.854;2023-02-13T08:40:38;4.60;99.90
2453;DHT22;63678;47.994;7.854;2023-02-13T08:43:10;4.60;99.90
2453;DHT22;63678;47.994;7.854;2023-02-13T08:45:43;4.90;99.90
2453;DHT22;63678;47.994;7.854;2023-02-13T08:48:15;5.70;99.90
2453;DHT22;63678;47.994;7.854;2023-02-13T08:50:47;5.80;99.90
2453;DHT22;63678;47.994;7.854;2023-02-13T08:53:21;7.70;99.90
2453;DHT22;63678;47.994;7.854;2023-02-13T08:55:55;8.00;99.90
2453;DHT22;63678;47.994;7.854;2023-02-13T08:58:29;8.10;99.90
2453;DHT22;63678;47.994;7.854;2023-02-13T09:01:06;8.50;99.90
2453;DHT22;63678;47.994;7.854;2023-02-13T09:03:39;8.80;99.90
2453;DHT22;63678;47.994;7.854;2023-02-13T09:06:11;9.00;99.90
2453;DHT22;63678;47.994;7.854;2023-02-13T09:11:39;8.40;99.90
2453;DHT22;63678;47.994;7.854;2023-02-13T09:14:11;8.30;99.90
2453;DHT22;63678;47.994;7.854;2023-02-13T09:16:44;8.40;99.90
2453;DHT22;63678;47.994;7.854;2023-02-13T09:21:50;8.30;99.90
2453;DHT22;63678;47.994;7.854;2023-02-13T09:24:23;8.30;99.90
2453;DHT22;63678;47.994;7.854;2023-02-13T09:29:29;8.50;99.90
2453;DHT22;63678;47.994;7.854;2023-02-13T09:32:04;8.40;99.90
2453;DHT22;63678;47.994;7.854;2023-02-13T09:34:38;8.40;99.90
2453;DHT22;63678;47.994;7.854;2023-02-13T09:37:11;8.40;99.90
2453;DHT22;63678;47.994;7.854;2023-02-13T09:39:44;8.60;99.90
2453;DHT22;63678;47.994;7.854;2023-02-13T09:42:22;8.60;99.90
2453;DHT22;63678;47.994;7.854;2023-02-13T09:44:59;8.60;99.90
2453;DHT22;63678;47.994;7.854;2023-02-13T09:47:36;8.60;99.90
2453;DHT22;63678;47.994;7.854;2023-02-13T09:50:23;8.70;99.90
2453;DHT22;63678;47.994;7.854;2023-02-13T09:52:58;8.90;99.90
2453;DHT22;63678;47.994;7.854;2023-02-13T09:55:48;8.90;99.90
2453;DHT22;63678;47.994;7.854;2023-02-13T09:58:51;9.00;99.90
2453;DHT22;63678;47.994;7.854;2023-02-13T10:01:38;9.20;99.90
2453;DHT22;63678;47.994;7.854;2023-02-13T10:04:30;9.50;99.90
2453;DHT22;63678;47.994;7.854;2023-02-13T10:22:03;9.70;99.90
2453;DHT22;63678;47.994;7.854;2023-02-13T10:24:49;9.50;99.90
2453;DHT22;63678;47.994;7.854;2023-02-13T10:27:47;9.50;99.90
2453;DHT22;63678;47.994;7.854;2023-02-13T10:30:29;9.80;99.90
2453;DHT22;63678;47.994;7.854;2023-02-13T10:33:12;9.70;99.90
2453;DHT22;63678;47.994;7.854;2023-02-13T10:36:18;9.60;99.90
2453;DHT22;63678;47.994;7.854;2023-02-13T10:44:44;10.30;99.90
2453;DHT22;63678;47.994;7.854;2023-02-13T10:47:47;10.30;99.90
2453;DHT22;63678;47.994;7.854;2023-02-13T10:56:26;10.40;99.90
2453;DHT22;63678;47.994;7.854;2023-02-13T11:02:23;10.70;99.90
2453;DHT22;63678;47.994;7.854;2023-02-13T11:05:31;10.80;99.90
2453;DHT22;63678;47.994;7.854;2023-02-13T11:08:26;10.70;99.90
2453;DHT22;63678;47.994;7.854;2023-02-13T11:11:02;10.70;99.90
2453;DHT22;63678;47.994;7.854;2023-02-13T11:13:34;10.90;99.90
2453;DHT22;63678;47.994;7.854;2023-02-13T11:16:08;11.20;99.90
2453;DHT22;63678;47.994;7.854;2023-02-13T11:18:42;12.00;99.90
2453;DHT22;63678;47.994;7.854;2023-02-13T11:21:22;11.70;99.90
2453;DHT22;63678;47.994;7.854;2023-02-13T11:24:17;11.40;99.90
2453;DHT22;63678;47.994;7.854;2023-02-13T11:27:28;11.10;99.90
2453;DHT22;63678;47.994;7.854;2023-02-13T11:30:02;11.70;99.90
2453;DHT22;63678;47.994;7.854;2023-02-13T11:35:37;11.30;99.90
2453;DHT22;63678;47.994;7.854;2023-02-13T11:38:22;11.40;99.90
2453;DHT22;63678;47.994;7.854;2023-02-13T11:41:15;11.30;99.90
2453;DHT22;63678;47.994;7.854;2023-02-13T11:43:53;11.50;99.90
2453;DHT22;63678;47.994;7.854;2023-02-13T11:46:49;11.40;99.90
2453;DHT22;63678;47.994;7.854;2023-02-13T11:49:25;11.40;99.90
2453;DHT22;63678;47.994;7.854;2023-02-13T11:52:26;11.10;99.90
2453;DHT22;63678;47.994;7.854;2023-02-13T11:55:03;11.10;99.90
2453;DHT22;63678;47.994;7.854;2023-02-13T11:57:37;11.20;99.90
2453;DHT22;63678;47.994;7.854;2023-02-13T12:00:40;11.40;99.90
2453;DHT22;63678;47.994;7.854;2023-02-13T12:03:28;11.60;99.90
2453;DHT22;63678;47.994;7.854;2023-02-13T12:06:11;11.70;99.90
2453;DHT22;63678;47.994;7.854;2023-02-13T12:08:48;11.50;99.90
2453;DHT22;63678;47.994;7.854;2023-02-13T12:13:54;11.60;99.90
2453;DHT22;63678;47.994;7.854;2023-02-13T12:16:48;11.50;99.90
2453;DHT22;63678;47.994;7.854;2023-02-13T12:19:28;11.60;99.90
2453;DHT22;63678;47.994;7.854;2023-02-13T12:22:23;11.60;99.90
2453;DHT22;63678;47.994;7.854;2023-02-13T12:25:30;11.60;99.90
2453;DHT22;63678;47.994;7.854;2023-02-13T12:28:50;11.60;99.90
2453;DHT22;63678;47.994;7.854;2023-02-13T12:46:29;11.70;99.90
2453;DHT22;63678;47.994;7.854;2023-02-13T12:49:25;11.80;99.90
2453;DHT22;63678;47.994;7.854;2023-02-13T12:52:35;11.60;99.90
2453;DHT22;63678;47.994;7.854;2023-02-13T13:10:02;11.80;99.90
2453;DHT22;63678;47.994;7.854;2023-02-13T13:18:41;11.50;99.90
2453;DHT22;63678;47.994;7.854;2023-02-13T13:27:26;11.30;99.90
2453;DHT22;63678;47.994;7.854;2023-02-13T13:32:59;11.10;99.90
2453;DHT22;63678;47.994;7.854;2023-02-13T13:35:34;11.30;99.90
2453;DHT22;63678;47.994;7.854;2023-02-13T13:49:51;11.00;99.90
2453;DHT22;63678;47.994;7.854;2023-02-13T13:55:05;11.00;99.90
2453;DHT22;63678;47.994;7.854;2023-02-13T14:03:22;10.90;99.90
2453;DHT22;63678;47.994;7.854;2023-02-13T14:06:02;10.90;99.90
2453;DHT22;63678;47.994;7.854;2023-02-13T14:11:29;10.90;99.90
2453;DHT22;63678;47.994;7.854;2023-02-13T14:17:11;10.70;99.90
2453;DHT22;63678;47.994;7.854;2023-02-13T14:19:50;10.60;99.90
2453;DHT22;63678;47.994;7.854;2023-02-13T14:25:06;10.50;99.90
2453;DHT22;63678;47.994;7.854;2023-02-13T14:27:58;10.40;99.90
2453;DHT22;63678;47.994;7.854;2023-02-13T14:30:37;10.30;99.90
2453;DHT22;63678;47.994;7.854;2023-02-13T14:33:29;10.40;99.90
2453;DHT22;63678;47.994;7.854;2023-02-13T14:36:06;10.20;99.90
2453;DHT22;63678;47.994;7.854;2023-02-13T14:38:40;10.30;99.90
2453;DHT22;63678;47.994;7.854;2023-02-13T14:44:20;10.10;99.90
2453;DHT22;63678;47.994;7.854;2023-02-13T14:47:12;10.20;99.90
2453;DHT22;63678;47.994;7.854;2023-02-13T14:50:07;10.20;99.90
2453;DHT22;63678;47.994;7.854;2023-02-13T14:52:47;10.10;99.90
2453;DHT22;63678;47.994;7.854;2023-02-13T14:58:14;10.00;99.90
2453;DHT22;63678;47.994;7.854;2023-02-13T15:01:22;9.90;99.90
2453;DHT22;63678;47.994;7.854;2023-02-13T15:04:08;10.00;99.90
2453;DHT22;63678;47.994;7.854;2023-02-13T15:06:43;9.90;99.90
2453;DHT22;63678;47.994;7.854;2023-02-13T15:12:23;9.90;99.90
2453;DHT22;63678;47.994;7.854;2023-02-13T15:15:29;9.80;99.90
2453;DHT22;63678;47.994;7.854;2023-02-13T15:18:31;9.80;99.90
2453;DHT22;63678;47.994;7.854;2023-02-13T15:21:12;9.70;99.90
2453;DHT22;63678;47.994;7.854;2023-02-13T15:23:54;9.70;99.90
2453;DHT22;63678;47.994;7.854;2023-02-13T15:26:27;9.70;99.90
2453;DHT22;63678;47.994;7.854;2023-02-13T15:29:20;9.70;99.90
2453;DHT22;63678;47.994;7.854;2023-02-13T15:32:17;9.60;99.90
2453;DHT22;63678;47.994;7.854;2023-02-13T15:34:50;9.50;99.90
2453;DHT22;63678;47.994;7.854;2023-02-13T15:37:26;9.50;99.90
2453;DHT22;63678;47.994;7.854;2023-02-13T15:40:18;9.50;99.90
2453;DHT22;63678;47.994;7.854;2023-02-13T15:42:55;9.40;99.90
2453;DHT22;63678;47.994;7.854;2023-02-13T15:45:29;9.40;99.90
2453;DHT22;63678;47.994;7.854;2023-02-13T15:48:01;9.30;99.90
2453;DHT22;63678;47.994;7.854;2023-02-13T15:50:34;9.30;99.90
2453;DHT22;63678;47.994;7.854;2023-02-13T15:53:11;9.20;99.90
2453;DHT22;63678;47.994;7.854;2023-02-13T15:56:01;9.10;99.90
2453;DHT22;63678;47.994;7.854;2023-02-13T15:58:35;9.20;99.90
2453;DHT22;63678;47.994;7.854;2023-02-13T16:01:08;9.10;99.90
2453;DHT22;63678;47.994;7.854;2023-02-13T16:03:42;9.00;99.90
2453;DHT22;63678;47.994;7.854;2023-02-13T16:06:19;8.90;99.90
2453;DHT22;63678;47.994;7.854;2023-02-13T16:08:55;8.70;99.90
2453;DHT22;63678;47.994;7.854;2023-02-13T16:11:38;8.60;99.90
2453;DHT22;63678;47.994;7.854;2023-02-13T16:14:29;8.50;99.90
2453;DHT22;63678;47.994;7.854;2023-02-13T16:17:04;8.40;99.90
2453;DHT22;63678;47.994;7.854;2023-02-13T16:22:56;8.20;99.90
2453;DHT22;63678;47.994;7.854;2023-02-13T16:25:37;8.00;99.90
2453;DHT22;63678;47.994;7.854;2023-02-13T16:31:00;7.90;99.90
2453;DHT22;63678;47.994;7.854;2023-02-13T16:33:36;7.80;99.90
2453;DHT22;63678;47.994;7.854;2023-02-13T16:38:46;7.50;99.90
2453;DHT22;63678;47.994;7.854;2023-02-13T16:44:00;7.30;99.90
2453;DHT22;63678;47.994;7.854;2023-02-13T16:46:36;7.20;99.90
2453;DHT22;63678;47.994;7.854;2023-02-13T16:49:15;7.10;99.90
2453;DHT22;63678;47.994;7.854;2023-02-13T16:51:53;7.00;99.90
2453;DHT22;63678;47.994;7.854;2023-02-13T16:54:31;6.90;99.90
2453;DHT22;63678;47.994;7.854;2023-02-13T16:57:30;6.90;99.90
2453;DHT22;63678;47.994;7.854;2023-02-13T17:00:19;6.80;99.90
2453;DHT22;63678;47.994;7.854;2023-02-13T17:05:28;6.60;99.90
2453;DHT22;63678;47.994;7.854;2023-02-13T17:08:00;6.50;99.90
2453;DHT22;63678;47.994;7.854;2023-02-13T17:10:35;6.50;99.90
2453;DHT22;63678;47.994;7.854;2023-02-13T17:15:45;6.30;99.90
2453;DHT22;63678;47.994;7.854;2023-02-13T17:18:18;6.20;99.90
2453;DHT22;63678;47.994;7.854;2023-02-13T17:20:50;6.20;99.90
2453;DHT22;63678;47.994;7.854;2023-02-13T17:23:23;6.10;99.90
2453;DHT22;63678;47.994;7.854;2023-02-13T17:25:56;6.00;99.90
2453;DHT22;63678;47.994;7.854;2023-02-13T17:31:08;5.90;99.90
2453;DHT22;63678;47.994;7.854;2023-02-13T17:36:16;5.80;99.90
2453;DHT22;63678;47.994;7.854;2023-02-13T17:43:53;5.50;99.90
2453;DHT22;63678;47.994;7.854;2023-02-13T17:46:26;5.40;99.90
2453;DHT22;63678;47.994;7.854;2023-02-13T17:48:58;5.30;99.90
2453;DHT22;63678;47.994;7.854;2023-02-13T17:51:31;5.30;99.90
2453;DHT22;63678;47.994;7.854;2023-02-13T17:54:04;5.20;99.90
2453;DHT22;63678;47.994;7.854;2023-02-13T17:56:36;5.10;99.90
2453;DHT22;63678;47.994;7.854;2023-02-13T17:59:08;5.10;99.90
2453;DHT22;63678;47.994;7.854;2023-02-13T18:06:50;4.70;99.90
2453;DHT22;63678;47.994;7.854;2023-02-13T18:09:23;4.60;99.90
2453;DHT22;63678;47.994;7.854;2023-02-13T18:11:56;4.50;99.90
2453;DHT22;63678;47.994;7.854;2023-02-13T18:14:36;4.40;99.90
2453;DHT22;63678;47.994;7.854;2023-02-13T18:17:09;4.40;99.90
2453;DHT22;63678;47.994;7.854;2023-02-13T18:19:41;4.50;99.90
2453;DHT22;63678;47.994;7.854;2023-02-13T18:24:46;4.60;99.90
2453;DHT22;63678;47.994;7.854;2023-02-13T18:32:24;4.50;99.90
2453;DHT22;63678;47.994;7.854;2023-02-13T18:34:56;4.50;99.90
2453;DHT22;63678;47.994;7.854;2023-02-13T18:37:29;4.30;99.90
2453;DHT22;63678;47.994;7.854;2023-02-13T18:42:34;4.20;99.90
2453;DHT22;63678;47.994;7.854;2023-02-13T18:45:07;4.00;99.90
2453;DHT22;63678;47.994;7.854;2023-02-13T18:47:40;3.90;99.90
2453;DHT22;63678;47.994;7.854;2023-02-13T18:50:12;3.80;99.90
2453;DHT22;63678;47.994;7.854;2023-02-13T18:52:45;3.80;99.90
2453;DHT22;63678;47.994;7.854;2023-02-13T18:55:19;3.80;99.90
2453;DHT22;63678;47.994;7.854;2023-02-13T18:57:52;3.70;99.90
2453;DHT22;63678;47.994;7.854;2023-02-13T19:00:25;3.70;99.90
2453;DHT22;63678;47.994;7.854;2023-02-13T19:02:58;3.60;99.90
2453;DHT22;63678;47.994;7.854;2023-02-13T19:05:30;3.50;99.90
2453;DHT22;63678;47.994;7.854;2023-02-13T19:08:02;3.50;99.90
2453;DHT22;63678;47.994;7.854;2023-02-13T19:10:37;3.40;99.90
2453;DHT22;63678;47.994;7.854;2023-02-13T19:13:12;3.40;99.90
2453;DHT22;63678;47.994;7.854;2023-02-13T19:15:44;3.30;99.90
2453;DHT22;63678;47.994;7.854;2023-02-13T19:18:17;3.20;99.90
2453;DHT22;63678;47.994;7.854;2023-02-13T19:20:49;3.20;99.90
2453;DHT22;63678;47.994;7.854;2023-02-13T19:28:27;3.00;99.90
2453;DHT22;63678;47.994;7.854;2023-02-13T19:31:08;2.90;99.90
2453;DHT22;63678;47.994;7.854;2023-02-13T19:33:42;2.90;99.90
2453;DHT22;63678;47.994;7.854;2023-02-13T19:36:17;2.80;99.90
2453;DHT22;63678;47.994;7.854;2023-02-13T19:39:03;2.60;99.90
2453;DHT22;63678;47.994;7.854;2023-02-13T19:41:37;2.60;99.90
2453;DHT22;63678;47.994;7.854;2023-02-13T19:44:11;2.50;99.90
2453;DHT22;63678;47.994;7.854;2023-02-13T19:46:44;2.60;99.90
2453;DHT22;63678;47.994;7.854;2023-02-13T19:49:16;2.60;99.90
2453;DHT22;63678;47.994;7.854;2023-02-13T19:51:50;2.60;99.90
2453;DHT22;63678;47.994;7.854;2023-02-13T19:54:22;2.60;99.90
2453;DHT22;63678;47.994;7.854;2023-02-13T19:56:55;2.70;99.90
2453;DHT22;63678;47.994;7.854;2023-02-13T19:59:31;2.70;99.90
2453;DHT22;63678;47.994;7.854;2023-02-13T20:02:04;2.60;99.90
2453;DHT22;63678;47.994;7.854;2023-02-13T20:04:36;2.60;99.90
2453;DHT22;63678;47.994;7.854;2023-02-13T20:07:10;2.60;99.90
2453;DHT22;63678;47.994;7.854;2023-02-13T20:09:42;2.60;99.90
2453;DHT22;63678;47.994;7.854;2023-02-13T20:12:15;2.50;99.90
2453;DHT22;63678;47.994;7.854;2023-02-13T20:14:48;2.50;99.90
2453;DHT22;63678;47.994;7.854;2023-02-13T20:19:56;2.40;99.90
2453;DHT22;63678;47.994;7.854;2023-02-13T20:22:29;2.40;99.90
2453;DHT22;63678;47.994;7.854;2023-02-13T20:25:02;2.30;99.90
2453;DHT22;63678;47.994;7.854;2023-02-13T20:27:35;2.30;99.90
2453;DHT22;63678;47.994;7.854;2023-02-13T20:30:14;2.20;99.90
2453;DHT22;63678;47.994;7.854;2023-02-13T20:33:12;2.00;99.90
2453;DHT22;63678;47.994;7.854;2023-02-13T20:35:45;2.00;99.90
2453;DHT22;63678;47.994;7.854;2023-02-13T20:38:17;2.00;99.90
2453;DHT22;63678;47.994;7.854;2023-02-13T20:40:51;2.00;99.90
2453;DHT22;63678;47.994;7.854;2023-02-13T20:43:24;2.00;99.90
2453;DHT22;63678;47.994;7.854;2023-02-13T20:45:57;1.90;99.90
2453;DHT22;63678;47.994;7.854;2023-02-13T20:48:30;2.00;99.90
2453;DHT22;63678;47.994;7.854;2023-02-13T20:51:05;2.00;99.90
2453;DHT22;63678;47.994;7.854;2023-02-13T20:53:40;2.00;99.90
2453;DHT22;63678;47.994;7.854;2023-02-13T20:56:18;2.10;99.90
2453;DHT22;63678;47.994;7.854;2023-02-13T20:58:54;2.10;99.90
2453;DHT22;63678;47.994;7.854;2023-02-13T21:01:33;2.10;99.90
2453;DHT22;63678;47.994;7.854;2023-02-13T21:04:08;2.10;99.90